SVA1162 OERK-OEDF
Flight info
| Callsign | SVA1162 |
|---|---|
| Flight time | 0h 37m |
| Altitude | 23000 |
| Route | EGPIN H744 ITUNI N687 MIBRA |
| Aircraft | A21N/M-SDE2E3FGHIRWXY/LB1 |
Departure
| Time | 2026-05-04 18:26 |
|---|---|
| Airport | King Khalid International Airport (OERK) |
Arrival
| Time | 2026-05-04 19:03 |
|---|---|
| Airport | King Fahd International Airport (OEDF) |
| Time | Latitude | Longitude | Altitude | Speed | Heading |
|---|---|---|---|---|---|
| 2026-05-04 18:01 | 24.95533 | 46.70663 | 2036 ft | 0 kts | 312° |
| 2026-05-04 18:11 | 24.95521 | 46.70677 | 2036 ft | 4 kts | 315° |
| 2026-05-04 18:12 | 24.95502 | 46.70698 | 2036 ft | 4 kts | 310° |
| 2026-05-04 18:12 | 24.95491 | 46.70720 | 2036 ft | 4 kts | 262° |
| 2026-05-04 18:12 | 24.95500 | 46.70742 | 2036 ft | 4 kts | 240° |
| 2026-05-04 18:12 | 24.95513 | 46.70768 | 2036 ft | 4 kts | 239° |
| 2026-05-04 18:13 | 24.95527 | 46.70793 | 2036 ft | 4 kts | 239° |
| 2026-05-04 18:13 | 24.95541 | 46.70819 | 2036 ft | 4 kts | 239° |
| 2026-05-04 18:13 | 24.95563 | 46.70872 | 2036 ft | 4 kts | 271° |
| 2026-05-04 18:14 | 24.95555 | 46.70889 | 2036 ft | 4 kts | 330° |
| 2026-05-04 18:14 | 24.95532 | 46.70904 | 2036 ft | 4 kts | 330° |
| 2026-05-04 18:14 | 24.95519 | 46.70912 | 2036 ft | 0 kts | 330° |
| 2026-05-04 18:17 | 24.95523 | 46.70909 | 2036 ft | 2 kts | 330° |
| 2026-05-04 18:18 | 24.95544 | 46.70896 | 2036 ft | 5 kts | 330° |
| 2026-05-04 18:18 | 24.95583 | 46.70871 | 2036 ft | 8 kts | 330° |
| 2026-05-04 18:18 | 24.95643 | 46.70833 | 2036 ft | 11 kts | 330° |
| 2026-05-04 18:18 | 24.95721 | 46.70784 | 2036 ft | 14 kts | 330° |
| 2026-05-04 18:19 | 24.95834 | 46.70750 | 2036 ft | 10 kts | 40° |
| 2026-05-04 18:19 | 24.95886 | 46.70814 | 2036 ft | 12 kts | 55° |
| 2026-05-04 18:19 | 24.95932 | 46.70901 | 2036 ft | 14 kts | 62° |
| 2026-05-04 18:20 | 24.96017 | 46.70916 | 2036 ft | 16 kts | 329° |
| 2026-05-04 18:20 | 24.96081 | 46.70874 | 2035 ft | 17 kts | 329° |
| 2026-05-04 18:20 | 24.96184 | 46.70805 | 2035 ft | 18 kts | 329° |
| 2026-05-04 18:20 | 24.96297 | 46.70735 | 2035 ft | 19 kts | 333° |
| 2026-05-04 18:21 | 24.96419 | 46.70666 | 2035 ft | 20 kts | 333° |
| 2026-05-04 18:21 | 24.96548 | 46.70589 | 2035 ft | 22 kts | 326° |
| 2026-05-04 18:21 | 24.96677 | 46.70496 | 2035 ft | 23 kts | 328° |
| 2026-05-04 18:21 | 24.96817 | 46.70407 | 2034 ft | 24 kts | 331° |
| 2026-05-04 18:22 | 24.96967 | 46.70315 | 2034 ft | 25 kts | 330° |
| 2026-05-04 18:22 | 24.97122 | 46.70218 | 2034 ft | 26 kts | 330° |
| 2026-05-04 18:22 | 24.97249 | 46.70138 | 2034 ft | 12 kts | 328° |
| 2026-05-04 18:22 | 24.97327 | 46.70086 | 2034 ft | 14 kts | 328° |
| 2026-05-04 18:23 | 24.97414 | 46.70027 | 2033 ft | 15 kts | 329° |
| 2026-05-04 18:23 | 24.97484 | 46.69982 | 2033 ft | 10 kts | 329° |
| 2026-05-04 18:23 | 24.97543 | 46.69971 | 2033 ft | 10 kts | 30° |
| 2026-05-04 18:23 | 24.97581 | 46.70040 | 2033 ft | 12 kts | 61° |
| 2026-05-04 18:24 | 24.97623 | 46.70123 | 2033 ft | 13 kts | 61° |
| 2026-05-04 18:24 | 24.97652 | 46.70183 | 2033 ft | 4 kts | 62° |
| 2026-05-04 18:24 | 24.97656 | 46.70219 | 2033 ft | 6 kts | 130° |
| 2026-05-04 18:24 | 24.97613 | 46.70248 | 2033 ft | 11 kts | 150° |
| 2026-05-04 18:25 | 24.97348 | 46.70414 | 2034 ft | 79 kts | 151° |
| 2026-05-04 18:25 | 24.96686 | 46.70830 | 2035 ft | 137 kts | 149° |
| 2026-05-04 18:25 | 24.95772 | 46.71414 | 2036 ft | 170 kts | 151° |
| 2026-05-04 18:25 | 24.94688 | 46.72080 | 2383 ft | 180 kts | 152° |
| 2026-05-04 18:26 | 24.93595 | 46.72773 | 2971 ft | 180 kts | 148° |
| 2026-05-04 18:26 | 24.92690 | 46.73730 | 3542 ft | 188 kts | 130° |
| 2026-05-04 18:26 | 24.91812 | 46.74880 | 3986 ft | 205 kts | 132° |
| 2026-05-04 18:26 | 24.90833 | 46.76083 | 4593 ft | 220 kts | 134° |
| 2026-05-04 18:27 | 24.89676 | 46.77269 | 5204 ft | 236 kts | 139° |
| 2026-05-04 18:27 | 24.88570 | 46.78718 | 5586 ft | 260 kts | 116° |
| 2026-05-04 18:27 | 24.88246 | 46.80716 | 6082 ft | 276 kts | 83° |
| 2026-05-04 18:27 | 24.88934 | 46.82699 | 6770 ft | 282 kts | 59° |
| 2026-05-04 18:28 | 24.89984 | 46.84545 | 7544 ft | 286 kts | 58° |
| 2026-05-04 18:28 | 24.91009 | 46.86440 | 8317 ft | 290 kts | 60° |
| 2026-05-04 18:28 | 24.91990 | 46.88399 | 9066 ft | 293 kts | 62° |
| 2026-05-04 18:28 | 24.92943 | 46.90404 | 9787 ft | 297 kts | 63° |
| 2026-05-04 18:29 | 24.93877 | 46.92432 | 10374 ft | 306 kts | 63° |
| 2026-05-04 18:29 | 24.94851 | 46.94588 | 10698 ft | 323 kts | 64° |
| 2026-05-04 18:29 | 24.95872 | 46.96872 | 10973 ft | 340 kts | 64° |
| 2026-05-04 18:29 | 24.96937 | 46.99263 | 11267 ft | 355 kts | 64° |
| 2026-05-04 18:30 | 24.99173 | 47.04299 | 12116 ft | 371 kts | 64° |
| 2026-05-04 18:30 | 25.00295 | 47.06837 | 12657 ft | 374 kts | 64° |
| 2026-05-04 18:30 | 25.01482 | 47.09410 | 13176 ft | 378 kts | 60° |
| 2026-05-04 18:31 | 25.02840 | 47.11905 | 13670 ft | 381 kts | 58° |
| 2026-05-04 18:31 | 25.04235 | 47.14403 | 14136 ft | 384 kts | 58° |
| 2026-05-04 18:31 | 25.05642 | 47.16921 | 14578 ft | 387 kts | 58° |
| 2026-05-04 18:31 | 25.07055 | 47.19467 | 15002 ft | 390 kts | 58° |
| 2026-05-04 18:32 | 25.08471 | 47.22026 | 15403 ft | 392 kts | 58° |
| 2026-05-04 18:32 | 25.09901 | 47.24606 | 15784 ft | 395 kts | 58° |
| 2026-05-04 18:32 | 25.11342 | 47.27204 | 16151 ft | 398 kts | 58° |
| 2026-05-04 18:32 | 25.12787 | 47.29814 | 16497 ft | 400 kts | 58° |
| 2026-05-04 18:33 | 25.14243 | 47.32443 | 16822 ft | 402 kts | 58° |
| 2026-05-04 18:33 | 25.15707 | 47.35089 | 17137 ft | 405 kts | 59° |
| 2026-05-04 18:33 | 25.17158 | 47.37712 | 17435 ft | 407 kts | 58° |
| 2026-05-04 18:33 | 25.18637 | 47.40382 | 17723 ft | 409 kts | 58° |
| 2026-05-04 18:34 | 25.20166 | 47.43050 | 17999 ft | 411 kts | 54° |
| 2026-05-04 18:34 | 25.21948 | 47.45527 | 18260 ft | 413 kts | 50° |
| 2026-05-04 18:34 | 25.23803 | 47.47954 | 18517 ft | 415 kts | 50° |
| 2026-05-04 18:34 | 25.25675 | 47.50389 | 18759 ft | 416 kts | 50° |
| 2026-05-04 18:35 | 25.27556 | 47.52844 | 19003 ft | 418 kts | 50° |
| 2026-05-04 18:35 | 25.29434 | 47.55305 | 19234 ft | 420 kts | 50° |
| 2026-05-04 18:35 | 25.31299 | 47.57750 | 19457 ft | 422 kts | 50° |
| 2026-05-04 18:35 | 25.33191 | 47.60232 | 19675 ft | 423 kts | 50° |
| 2026-05-04 18:36 | 25.35087 | 47.62725 | 19890 ft | 425 kts | 50° |
| 2026-05-04 18:36 | 25.36997 | 47.65233 | 20098 ft | 426 kts | 50° |
| 2026-05-04 18:36 | 25.38909 | 47.67747 | 20292 ft | 428 kts | 50° |
| 2026-05-04 18:36 | 25.40701 | 47.70376 | 20483 ft | 429 kts | 58° |
| 2026-05-04 18:37 | 25.42072 | 47.73309 | 20673 ft | 430 kts | 65° |
| 2026-05-04 18:37 | 25.43303 | 47.76342 | 20856 ft | 432 kts | 66° |
| 2026-05-04 18:37 | 25.44524 | 47.79390 | 21038 ft | 433 kts | 66° |
| 2026-05-04 18:37 | 25.45756 | 47.82447 | 21221 ft | 435 kts | 66° |
| 2026-05-04 18:38 | 25.46978 | 47.85468 | 21399 ft | 436 kts | 66° |
| 2026-05-04 18:38 | 25.48224 | 47.88537 | 21570 ft | 437 kts | 66° |
| 2026-05-04 18:38 | 25.49473 | 47.91613 | 21732 ft | 439 kts | 66° |
| 2026-05-04 18:38 | 25.50728 | 47.94703 | 21892 ft | 440 kts | 66° |
| 2026-05-04 18:39 | 25.51984 | 47.97804 | 22056 ft | 441 kts | 66° |
| 2026-05-04 18:39 | 25.53238 | 48.00905 | 22211 ft | 442 kts | 66° |
| 2026-05-04 18:39 | 25.54499 | 48.04025 | 22362 ft | 443 kts | 66° |
| 2026-05-04 18:39 | 25.55764 | 48.07149 | 22511 ft | 445 kts | 66° |
| 2026-05-04 18:40 | 25.57017 | 48.10244 | 22656 ft | 446 kts | 66° |
| 2026-05-04 18:40 | 25.58287 | 48.13380 | 22794 ft | 447 kts | 66° |
| 2026-05-04 18:40 | 25.59561 | 48.16529 | 22935 ft | 448 kts | 66° |
| 2026-05-04 18:40 | 25.60817 | 48.19641 | 23055 ft | 431 kts | 66° |
| 2026-05-04 18:41 | 25.62032 | 48.22649 | 23047 ft | 426 kts | 66° |
| 2026-05-04 18:41 | 25.63243 | 48.25647 | 23024 ft | 426 kts | 66° |
| 2026-05-04 18:41 | 25.64452 | 48.28643 | 23010 ft | 426 kts | 66° |
| 2026-05-04 18:41 | 25.65661 | 48.31640 | 23004 ft | 425 kts | 66° |
| 2026-05-04 18:42 | 25.66868 | 48.34636 | 23003 ft | 425 kts | 66° |
| 2026-05-04 18:42 | 25.68063 | 48.37591 | 23002 ft | 425 kts | 65° |
| 2026-05-04 18:42 | 25.69484 | 48.40466 | 23002 ft | 425 kts | 58° |
| 2026-05-04 18:42 | 25.71066 | 48.43240 | 23003 ft | 426 kts | 57° |
| 2026-05-04 18:43 | 25.72661 | 48.46006 | 23002 ft | 426 kts | 57° |
| 2026-05-04 18:43 | 25.74237 | 48.48741 | 22821 ft | 418 kts | 57° |
| 2026-05-04 18:43 | 25.75811 | 48.51483 | 22561 ft | 423 kts | 57° |
| 2026-05-04 18:43 | 25.77389 | 48.54238 | 22309 ft | 421 kts | 58° |
| 2026-05-04 18:44 | 25.78963 | 48.56988 | 22057 ft | 419 kts | 58° |
| 2026-05-04 18:44 | 25.79997 | 48.58796 | 21890 ft | 418 kts | 58° |
| 2026-05-04 18:44 | 25.82076 | 48.62434 | 21554 ft | 416 kts | 58° |
| 2026-05-04 18:44 | 25.83602 | 48.65108 | 21307 ft | 414 kts | 58° |
| 2026-05-04 18:45 | 25.85140 | 48.67799 | 21056 ft | 412 kts | 58° |
| 2026-05-04 18:45 | 25.86670 | 48.70481 | 20805 ft | 410 kts | 58° |
| 2026-05-04 18:45 | 25.88195 | 48.73150 | 20554 ft | 408 kts | 58° |
| 2026-05-04 18:45 | 25.89711 | 48.75808 | 20304 ft | 406 kts | 58° |
| 2026-05-04 18:46 | 25.91223 | 48.78463 | 20052 ft | 405 kts | 58° |
| 2026-05-04 18:46 | 25.92723 | 48.81097 | 19802 ft | 403 kts | 58° |
| 2026-05-04 18:46 | 25.94216 | 48.83721 | 19552 ft | 401 kts | 58° |
| 2026-05-04 18:46 | 25.95728 | 48.86317 | 19262 ft | 397 kts | 57° |
| 2026-05-04 18:47 | 25.97242 | 48.88862 | 18781 ft | 391 kts | 56° |
| 2026-05-04 18:47 | 25.98721 | 48.91339 | 18284 ft | 388 kts | 56° |
| 2026-05-04 18:47 | 26.00207 | 48.93834 | 17796 ft | 387 kts | 57° |
| 2026-05-04 18:47 | 26.01690 | 48.96326 | 17306 ft | 385 kts | 57° |
| 2026-05-04 18:48 | 26.03170 | 48.98815 | 16798 ft | 384 kts | 57° |
| 2026-05-04 18:48 | 26.04641 | 49.01295 | 16316 ft | 383 kts | 57° |
| 2026-05-04 18:48 | 26.06103 | 49.03761 | 15852 ft | 381 kts | 57° |
| 2026-05-04 18:48 | 26.07558 | 49.06209 | 15396 ft | 378 kts | 57° |
| 2026-05-04 18:49 | 26.09002 | 49.08644 | 14935 ft | 376 kts | 57° |
| 2026-05-04 18:49 | 26.10427 | 49.11048 | 14567 ft | 368 kts | 57° |
| 2026-05-04 18:49 | 26.11833 | 49.13417 | 14198 ft | 365 kts | 57° |
| 2026-05-04 18:49 | 26.13226 | 49.15766 | 13792 ft | 362 kts | 57° |
| 2026-05-04 18:50 | 26.14610 | 49.18100 | 13368 ft | 361 kts | 57° |
| 2026-05-04 18:50 | 26.15986 | 49.20428 | 12943 ft | 359 kts | 57° |
| 2026-05-04 18:50 | 26.17356 | 49.22745 | 12526 ft | 357 kts | 57° |
| 2026-05-04 18:50 | 26.18717 | 49.25050 | 12100 ft | 356 kts | 57° |
| 2026-05-04 18:51 | 26.20075 | 49.27348 | 11669 ft | 355 kts | 57° |
| 2026-05-04 18:51 | 26.21426 | 49.29635 | 11241 ft | 353 kts | 57° |
| 2026-05-04 18:51 | 26.22761 | 49.31895 | 10946 ft | 344 kts | 57° |
| 2026-05-04 18:51 | 26.24050 | 49.34081 | 10755 ft | 331 kts | 57° |
| 2026-05-04 18:52 | 26.25274 | 49.36158 | 10499 ft | 317 kts | 57° |
| 2026-05-04 18:52 | 26.26461 | 49.38176 | 10208 ft | 306 kts | 57° |
| 2026-05-04 18:52 | 26.27615 | 49.40134 | 9922 ft | 301 kts | 57° |
| 2026-05-04 18:52 | 26.28763 | 49.42080 | 9583 ft | 300 kts | 57° |
| 2026-05-04 18:53 | 26.29908 | 49.44025 | 9234 ft | 300 kts | 57° |
| 2026-05-04 18:53 | 26.31055 | 49.45975 | 8883 ft | 299 kts | 57° |
| 2026-05-04 18:53 | 26.32193 | 49.47908 | 8537 ft | 296 kts | 57° |
| 2026-05-04 18:53 | 26.33314 | 49.49814 | 8203 ft | 292 kts | 57° |
| 2026-05-04 18:54 | 26.34421 | 49.51705 | 7890 ft | 291 kts | 57° |
| 2026-05-04 18:54 | 26.35315 | 49.53712 | 7557 ft | 290 kts | 75° |
| 2026-05-04 18:54 | 26.35422 | 49.55928 | 7215 ft | 287 kts | 101° |
| 2026-05-04 18:54 | 26.34646 | 49.57925 | 6952 ft | 279 kts | 128° |
| 2026-05-04 18:55 | 26.33348 | 49.59430 | 6807 ft | 267 kts | 137° |
| 2026-05-04 18:55 | 26.30916 | 49.62353 | 6428 ft | 251 kts | 128° |
| 2026-05-04 18:55 | 26.29909 | 49.63930 | 6102 ft | 249 kts | 123° |
| 2026-05-04 18:56 | 26.29028 | 49.65583 | 5762 ft | 248 kts | 119° |
| 2026-05-04 18:56 | 26.28266 | 49.67309 | 5423 ft | 247 kts | 114° |
| 2026-05-04 18:56 | 26.27629 | 49.69082 | 5088 ft | 246 kts | 110° |
| 2026-05-04 18:56 | 26.27116 | 49.70892 | 4757 ft | 245 kts | 105° |
| 2026-05-04 18:57 | 26.26725 | 49.72733 | 4428 ft | 243 kts | 101° |
| 2026-05-04 18:57 | 26.26457 | 49.74590 | 4102 ft | 242 kts | 97° |
| 2026-05-04 18:57 | 26.26311 | 49.76457 | 3777 ft | 241 kts | 93° |
| 2026-05-04 18:57 | 26.26283 | 49.78318 | 3453 ft | 240 kts | 89° |
| 2026-05-04 18:58 | 26.26375 | 49.80170 | 3241 ft | 239 kts | 85° |
| 2026-05-04 18:58 | 26.26620 | 49.82003 | 3211 ft | 240 kts | 77° |
| 2026-05-04 18:58 | 26.27346 | 49.83625 | 3208 ft | 240 kts | 45° |
| 2026-05-04 18:58 | 26.28780 | 49.84505 | 3217 ft | 234 kts | 8° |
| 2026-05-04 18:59 | 26.30333 | 49.84356 | 3084 ft | 220 kts | 341° |
| 2026-05-04 18:59 | 26.31730 | 49.83728 | 2837 ft | 214 kts | 335° |
| 2026-05-04 18:59 | 26.33102 | 49.83089 | 2559 ft | 212 kts | 339° |
| 2026-05-04 18:59 | 26.34456 | 49.82580 | 2343 ft | 200 kts | 343° |
| 2026-05-04 19:00 | 26.35756 | 49.82185 | 2074 ft | 188 kts | 343° |
| 2026-05-04 19:00 | 26.36986 | 49.81806 | 1798 ft | 178 kts | 343° |
| 2026-05-04 19:00 | 26.38151 | 49.81446 | 1542 ft | 169 kts | 343° |
| 2026-05-04 19:00 | 26.39254 | 49.81105 | 1315 ft | 162 kts | 343° |
| 2026-05-04 19:01 | 26.40328 | 49.80772 | 1133 ft | 162 kts | 343° |
| 2026-05-04 19:01 | 26.41411 | 49.80437 | 930 ft | 161 kts | 343° |
| 2026-05-04 19:01 | 26.42438 | 49.80119 | 717 ft | 144 kts | 343° |
| 2026-05-04 19:01 | 26.43394 | 49.79822 | 498 ft | 142 kts | 343° |
| 2026-05-04 19:02 | 26.44344 | 49.79529 | 327 ft | 141 kts | 343° |
| 2026-05-04 19:02 | 26.45290 | 49.79240 | 152 ft | 141 kts | 343° |
| 2026-05-04 19:02 | 26.46145 | 49.78975 | 91 ft | 94 kts | 345° |
| 2026-05-04 19:02 | 26.46562 | 49.78845 | 91 ft | 50 kts | 344° |
| 2026-05-04 19:03 | 26.46893 | 49.78741 | 91 ft | 48 kts | 345° |
| 2026-05-04 19:03 | 26.47087 | 49.78705 | 94 ft | 23 kts | 13° |
| 2026-05-04 19:03 | 26.47244 | 49.78750 | 92 ft | 24 kts | 14° |
| 2026-05-04 19:03 | 26.47408 | 49.78797 | 91 ft | 20 kts | 14° |
| 2026-05-04 19:04 | 26.47468 | 49.78890 | 90 ft | 17 kts | 103° |
| 2026-05-04 19:04 | 26.47365 | 49.78926 | 90 ft | 17 kts | 172° |
| 2026-05-04 19:04 | 26.47245 | 49.78962 | 90 ft | 19 kts | 163° |
| 2026-05-04 19:04 | 26.47115 | 49.79005 | 90 ft | 20 kts | 163° |
| 2026-05-04 19:05 | 26.46976 | 49.79050 | 90 ft | 21 kts | 164° |
| 2026-05-04 19:05 | 26.46828 | 49.79097 | 90 ft | 23 kts | 165° |
| 2026-05-04 19:05 | 26.46668 | 49.79142 | 91 ft | 24 kts | 166° |
| 2026-05-04 19:05 | 26.46537 | 49.79179 | 91 ft | 9 kts | 164° |
| 2026-05-04 19:06 | 26.46468 | 49.79201 | 91 ft | 11 kts | 165° |
| 2026-05-04 19:06 | 26.46417 | 49.79262 | 90 ft | 13 kts | 78° |
| 2026-05-04 19:06 | 26.46440 | 49.79367 | 90 ft | 15 kts | 75° |
| 2026-05-04 19:06 | 26.46463 | 49.79450 | 90 ft | 5 kts | 61° |
| 2026-05-04 19:07 | 26.46489 | 49.79483 | 90 ft | 7 kts | 28° |
| 2026-05-04 19:07 | 26.46543 | 49.79489 | 90 ft | 9 kts | 358° |
| 2026-05-04 19:07 | 26.46598 | 49.79485 | 90 ft | 6 kts | 356° |
| 2026-05-04 19:07 | 26.46627 | 49.79530 | 90 ft | 8 kts | 77° |
| 2026-05-04 19:08 | 26.46630 | 49.79562 | 90 ft | 0 kts | 82° |
| 2026-05-04 19:08 | 26.46630 | 49.79567 | 90 ft | 0 kts | 83° |